Time;durP1;ratioP1;P1;durP2;ratioP2;P2;SDS_P1;SDS_P2;PMS_P1;PMS_P2;Temp;Humidity;BMP_temperature;BMP_pressure;BME280_temperature;BME280_humidity;BME280_pressure;Samples;Min_cycle;Max_cycle;Signal;HPM_P1;HPM_P2
2022/07/27 00:01:03;;;;;;;4.25;1.60;;;21.40;99.90;;;;;;4956344;28;20098;-76
2022/07/27 00:03:29;;;;;;;7.18;1.65;;;21.40;99.90;;;;;;4956649;28;20032;-76
2022/07/27 00:05:55;;;;;;;6.35;1.88;;;21.40;99.90;;;;;;4955806;29;20023;-76
2022/07/27 00:08:22;;;;;;;5.13;1.67;;;21.30;99.90;;;;;;4968829;28;20130;-76
2022/07/27 00:10:49;;;;;;;5.30;1.70;;;21.30;99.90;;;;;;4976046;28;20030;-76
2022/07/27 00:13:15;;;;;;;9.27;1.90;;;21.30;99.90;;;;;;4975610;28;20761;-76
2022/07/27 00:15:41;;;;;;;8.18;2.30;;;21.30;99.90;;;;;;4960843;28;20042;-76
2022/07/27 00:18:07;;;;;;;10.00;2.00;;;21.30;99.90;;;;;;4974363;28;20031;-76
2022/07/27 00:20:33;;;;;;;11.70;2.08;;;21.20;99.90;;;;;;4975449;28;20031;-76
2022/07/27 00:22:59;;;;;;;5.47;2.05;;;21.20;99.90;;;;;;4958765;28;20038;-76
2022/07/27 00:25:26;;;;;;;8.23;2.00;;;21.10;99.90;;;;;;4975760;28;20451;-76
2022/07/27 00:27:52;;;;;;;6.47;1.90;;;21.20;99.90;;;;;;4975529;28;20018;-76
2022/07/27 00:30:18;;;;;;;8.15;1.63;;;21.10;99.90;;;;;;4961819;28;20098;-76
2022/07/27 00:32:44;;;;;;;7.35;1.60;;;21.20;99.90;;;;;;4969044;28;20027;-76
2022/07/27 00:35:10;;;;;;;13.98;1.98;;;21.10;99.90;;;;;;4975235;28;20406;-76
2022/07/27 00:37:36;;;;;;;10.63;1.85;;;21.00;99.90;;;;;;4975712;28;20026;-77
2022/07/27 00:40:03;;;;;;;4.70;1.80;;;20.90;99.90;;;;;;4964833;28;20091;-76
2022/07/27 00:42:30;;;;;;;6.30;1.67;;;20.90;99.90;;;;;;4955835;29;20034;-76
2022/07/27 00:44:56;;;;;;;5.32;1.77;;;20.80;99.90;;;;;;4956034;28;20027;-76
2022/07/27 00:47:26;;;;;;;5.15;1.67;;;20.70;99.90;;;;;;4955839;28;20043;-76
2022/07/27 00:49:51;;;;;;;7.55;1.77;;;20.70;99.90;;;;;;4955904;29;20471;-76
2022/07/27 00:52:18;;;;;;;4.80;1.88;;;20.50;99.90;;;;;;4955810;29;20030;-76
2022/07/27 00:54:46;;;;;;;6.10;1.90;;;20.50;99.90;;;;;;4956327;29;20023;-76
2022/07/27 00:57:13;;;;;;;4.57;1.73;;;20.50;99.90;;;;;;4955124;28;20050;-76
2022/07/27 00:59:40;;;;;;;7.10;1.80;;;20.40;99.90;;;;;;4955853;28;20085;-76
2022/07/27 01:02:07;;;;;;;5.38;1.27;;;20.40;99.90;;;;;;4955412;28;20026;-76
2022/07/27 01:04:33;;;;;;;3.90;1.65;;;20.50;99.90;;;;;;4968502;28;20030;-76
2022/07/27 01:07:01;;;;;;;11.45;2.03;;;20.50;99.90;;;;;;4969797;28;20055;-76
2022/07/27 01:12:19;;;;;;;6.55;1.95;;;20.30;99.90;;;;;;4955568;29;20518;-76
2022/07/27 01:14:46;;;;;;;5.75;1.85;;;20.40;99.90;;;;;;4955662;29;20038;-76
2022/07/27 01:17:11;;;;;;;6.32;1.95;;;20.40;99.90;;;;;;4955096;29;20048;-76
2022/07/27 01:19:37;;;;;;;6.10;1.92;;;20.30;99.90;;;;;;4955220;29;20066;-77
2022/07/27 01:22:05;;;;;;;7.55;1.77;;;20.20;99.90;;;;;;4954683;29;20058;-76
2022/07/27 01:24:31;;;;;;;7.55;1.75;;;20.20;99.90;;;;;;4955436;29;20038;-76
2022/07/27 01:26:58;;;;;;;8.45;1.73;;;20.20;99.90;;;;;;4956179;28;20024;-76
2022/07/27 01:29:23;;;;;;;7.65;1.50;;;20.20;99.90;;;;;;4955003;29;20034;-76
2022/07/27 01:31:49;;;;;;;4.22;1.52;;;20.00;99.90;;;;;;4955086;29;20027;-76
2022/07/27 01:34:15;;;;;;;7.00;1.50;;;20.10;99.90;;;;;;4954763;28;20031;-77
2022/07/27 01:36:40;;;;;;;6.70;1.58;;;20.10;99.90;;;;;;4954985;28;20027;-76
2022/07/27 01:39:06;;;;;;;6.15;1.60;;;20.00;99.90;;;;;;4954692;29;20110;-76
2022/07/27 01:41:32;;;;;;;4.13;1.45;;;19.90;99.90;;;;;;4954437;29;20020;-76
2022/07/27 01:43:57;;;;;;;6.90;1.50;;;20.00;99.90;;;;;;4954754;29;20031;-76
2022/07/27 01:46:23;;;;;;;11.18;2.05;;;19.90;99.90;;;;;;4954277;29;20487;-76
2022/07/27 01:48:49;;;;;;;7.68;1.50;;;19.80;99.90;;;;;;4954953;29;20039;-76
2022/07/27 01:51:14;;;;;;;3.92;1.42;;;19.90;99.90;;;;;;4954831;29;20035;-76
2022/07/27 01:53:40;;;;;;;5.55;1.48;;;19.80;99.90;;;;;;4937118;29;20054;-76
2022/07/27 01:56:12;;;;;;;3.50;1.45;;;19.80;99.90;;;;;;4969909;28;20033;-76
2022/07/27 01:58:39;;;;;;;9.13;1.40;;;19.70;99.90;;;;;;4954872;29;20031;-76
2022/07/27 02:01:05;;;;;;;6.82;1.35;;;19.60;99.90;;;;;;4962700;28;20027;-76
2022/07/27 02:03:31;;;;;;;5.60;1.40;;;19.60;99.90;;;;;;4966719;28;20031;-76
2022/07/27 02:05:57;;;;;;;6.90;1.48;;;19.50;99.90;;;;;;4954574;29;20020;-75
2022/07/27 02:08:23;;;;;;;5.35;1.35;;;19.50;99.90;;;;;;4966462;28;20066;-76
2022/07/27 02:13:33;;;;;;;7.00;1.17;;;19.40;99.90;;;;;;4954826;28;20086;-76
2022/07/27 02:15:59;;;;;;;6.10;1.30;;;19.20;99.90;;;;;;4954309;28;20035;-76
2022/07/27 02:18:25;;;;;;;9.80;1.40;;;19.40;99.90;;;;;;4954264;29;20035;-76
2022/07/27 02:20:50;;;;;;;3.17;1.05;;;19.30;99.90;;;;;;4954882;28;20030;-76
2022/07/27 02:23:16;;;;;;;9.10;1.60;;;19.20;99.90;;;;;;4954122;28;20064;-76
2022/07/27 02:25:42;;;;;;;3.28;1.08;;;19.20;99.90;;;;;;4954599;29;20356;-76
2022/07/27 02:28:08;;;;;;;5.20;1.15;;;19.10;99.90;;;;;;4953915;28;20399;-76
2022/07/27 02:30:34;;;;;;;5.60;1.40;;;18.90;99.90;;;;;;4937101;29;20023;-76
2022/07/27 02:33:00;;;;;;;5.22;1.02;;;18.90;99.90;;;;;;4954517;29;20028;-76
2022/07/27 02:35:25;;;;;;;3.90;0.95;;;18.70;99.90;;;;;;4957028;28;20049;-76
2022/07/27 02:37:51;;;;;;;3.70;0.93;;;18.80;99.90;;;;;;4973838;28;20058;-76
2022/07/27 02:40:17;;;;;;;3.17;1.10;;;18.80;99.90;;;;;;4956716;28;20402;-76
2022/07/27 02:42:47;;;;;;;4.20;1.00;;;18.90;99.90;;;;;;4954438;28;20410;-75
2022/07/27 02:45:15;;;;;;;2.45;1.02;;;19.00;99.90;;;;;;4971249;28;20026;-76
2022/07/27 02:47:42;;;;;;;4.05;1.02;;;18.90;99.90;;;;;;4973218;28;20106;-76
2022/07/27 02:50:08;;;;;;;2.25;0.90;;;18.90;99.90;;;;;;4973224;28;20097;-76
2022/07/27 02:52:35;;;;;;;3.05;0.90;;;18.70;99.90;;;;;;4973671;28;20035;-75
2022/07/27 02:55:00;;;;;;;3.30;1.02;;;18.70;99.90;;;;;;4957018;28;20039;-75
2022/07/27 02:57:26;;;;;;;6.68;1.08;;;18.50;99.90;;;;;;4954332;29;20042;-76
2022/07/27 02:59:51;;;;;;;4.55;1.25;;;18.50;99.90;;;;;;4953971;29;20031;-77
2022/07/27 03:02:17;;;;;;;4.20;1.23;;;18.50;99.90;;;;;;4953763;29;20031;-76
2022/07/27 03:04:43;;;;;;;10.63;1.27;;;18.60;99.90;;;;;;4954221;28;20027;-76
2022/07/27 03:07:08;;;;;;;1.58;0.70;;;18.50;99.90;;;;;;4953493;28;20031;-76
2022/07/27 03:09:35;;;;;;;5.00;1.23;;;18.40;99.90;;;;;;4953882;29;20110;-76
2022/07/27 03:12:01;;;;;;;7.93;1.67;;;18.40;99.90;;;;;;4953899;29;20031;-76
2022/07/27 03:14:27;;;;;;;4.05;1.00;;;18.40;99.90;;;;;;4953996;29;20086;-75
2022/07/27 03:16:52;;;;;;;5.35;1.00;;;18.50;99.90;;;;;;4954409;29;20466;-76
2022/07/27 03:19:18;;;;;;;3.60;1.23;;;18.30;99.90;;;;;;4954051;28;20526;-76
2022/07/27 03:21:44;;;;;;;4.20;0.80;;;18.40;99.90;;;;;;4976538;28;20027;-76
2022/07/27 03:24:10;;;;;;;8.25;1.38;;;18.50;99.90;;;;;;4967548;28;20487;-76
2022/07/27 03:26:35;;;;;;;4.22;1.08;;;18.50;99.90;;;;;;4957186;29;20054;-76
2022/07/27 03:29:01;;;;;;;5.70;1.50;;;18.50;99.90;;;;;;4957021;29;20039;-76
2022/07/27 03:31:27;;;;;;;4.38;0.95;;;18.40;99.90;;;;;;4957857;29;20492;-76
2022/07/27 03:33:52;;;;;;;3.50;1.30;;;18.40;99.90;;;;;;4960831;28;20028;-75
2022/07/27 03:36:18;;;;;;;5.25;0.90;;;18.40;99.90;;;;;;4964949;28;20035;-76
2022/07/27 03:38:44;;;;;;;4.30;1.05;;;18.40;99.90;;;;;;4967864;28;20069;-76
2022/07/27 03:41:09;;;;;;;3.50;1.10;;;18.50;99.90;;;;;;4971019;28;20111;-76
2022/07/27 03:43:35;;;;;;;3.88;1.35;;;18.50;99.90;;;;;;4976048;28;20027;-76
2022/07/27 03:46:01;;;;;;;3.13;0.90;;;18.50;99.90;;;;;;4976987;28;20432;-76
2022/07/27 03:48:26;;;;;;;4.00;0.93;;;18.40;99.90;;;;;;4976405;28;20023;-76
2022/07/27 03:50:52;;;;;;;6.22;0.90;;;18.20;99.90;;;;;;4964407;28;20464;-76
2022/07/27 03:53:20;;;;;;;4.18;0.90;;;18.30;99.90;;;;;;4957168;29;20067;-76
2022/07/27 03:55:47;;;;;;;3.33;0.95;;;18.20;99.90;;;;;;4957239;29;20030;-76
2022/07/27 03:58:13;;;;;;;3.40;0.88;;;18.20;99.90;;;;;;4939076;29;20066;-76
2022/07/27 04:00:38;;;;;;;4.75;1.00;;;18.40;99.90;;;;;;4939320;29;20058;-76
2022/07/27 04:03:04;;;;;;;6.90;1.05;;;18.40;99.90;;;;;;4957326;29;20078;-75
2022/07/27 04:05:30;;;;;;;5.47;1.10;;;18.20;99.90;;;;;;4956587;29;20023;-76
2022/07/27 04:07:56;;;;;;;4.35;1.27;;;18.10;99.90;;;;;;4965205;28;20050;-76
2022/07/27 04:10:23;;;;;;;2.70;0.82;;;18.30;99.90;;;;;;4969446;28;20031;-76
2022/07/27 04:12:49;;;;;;;4.32;0.90;;;18.20;99.90;;;;;;4956882;28;20046;-75
2022/07/27 04:15:17;;;;;;;4.03;0.90;;;18.20;99.90;;;;;;4956886;29;20383;-77
2022/07/27 04:17:43;;;;;;;1.58;0.80;;;18.20;99.90;;;;;;4956266;29;20027;-76
2022/07/27 04:20:09;;;;;;;5.13;0.90;;;18.20;99.90;;;;;;4955990;28;20038;-77
2022/07/27 04:22:35;;;;;;;4.60;0.70;;;18.20;99.90;;;;;;4939408;29;20033;-76
2022/07/27 04:25:01;;;;;;;4.28;1.00;;;18.20;99.90;;;;;;4971188;28;20019;-77
2022/07/27 04:27:27;;;;;;;6.68;0.98;;;18.20;99.90;;;;;;4975870;28;20054;-77
2022/07/27 04:29:52;;;;;;;9.25;1.23;;;18.20;99.90;;;;;;4975369;28;20026;-77
2022/07/27 04:32:18;;;;;;;6.13;0.90;;;18.20;99.90;;;;;;4964845;28;20082;-77
2022/07/27 04:34:43;;;;;;;7.20;1.00;;;18.30;99.90;;;;;;4960359;28;20022;-77
2022/07/27 04:37:09;;;;;;;9.65;1.00;;;18.20;99.90;;;;;;4969703;28;20055;-76
2022/07/27 04:39:35;;;;;;;3.83;0.90;;;18.30;99.90;;;;;;4975204;28;20050;-77
2022/07/27 04:42:00;;;;;;;3.42;1.05;;;18.20;99.90;;;;;;4946798;28;20384;-78
2022/07/27 04:44:26;;;;;;;3.53;1.20;;;18.10;99.90;;;;;;4941754;28;20019;-78
2022/07/27 04:46:52;;;;;;;3.97;1.05;;;18.20;99.90;;;;;;4971458;28;20495;-78
2022/07/27 04:49:17;;;;;;;2.15;0.93;;;18.20;99.90;;;;;;4955939;28;20467;-77
2022/07/27 04:51:43;;;;;;;4.80;0.88;;;18.10;99.90;;;;;;4959406;28;20368;-77
2022/07/27 04:54:10;;;;;;;7.45;1.25;;;18.20;99.90;;;;;;4955558;29;20550;-78
2022/07/27 04:56:35;;;;;;;3.60;1.00;;;18.20;99.90;;;;;;4957282;28;20024;-78
2022/07/27 04:59:01;;;;;;;4.60;1.05;;;18.30;99.90;;;;;;4955469;28;20372;-77
2022/07/27 05:01:27;;;;;;;5.38;1.10;;;18.10;99.90;;;;;;4957566;28;20483;-78
2022/07/27 05:03:53;;;;;;;7.15;1.30;;;18.00;99.90;;;;;;4958588;28;20019;-79
2022/07/27 05:06:19;;;;;;;5.55;1.15;;;18.20;99.90;;;;;;4955227;29;20109;-79
2022/07/27 05:08:44;;;;;;;4.68;1.00;;;18.10;99.90;;;;;;4970223;28;20137;-77
2022/07/27 05:11:10;;;;;;;2.50;1.02;;;18.20;99.90;;;;;;4975541;28;20054;-77
2022/07/27 05:13:39;;;;;;;7.88;1.60;;;18.20;99.90;;;;;;4965187;28;20374;-77
2022/07/27 05:16:09;;;;;;;5.25;1.08;;;18.20;99.90;;;;;;4967156;28;20042;-77
2022/07/27 05:18:38;;;;;;;7.82;1.30;;;18.20;99.90;;;;;;4962324;28;20094;-77
2022/07/27 05:21:05;;;;;;;3.28;1.40;;;18.20;99.90;;;;;;4954772;28;20475;-77
2022/07/27 05:23:31;;;;;;;10.57;1.52;;;18.20;99.90;;;;;;4954821;28;20019;-77
2022/07/27 05:25:57;;;;;;;7.93;1.20;;;18.20;99.90;;;;;;4965624;28;20027;-77
2022/07/27 05:28:22;;;;;;;4.85;1.02;;;18.30;99.90;;;;;;4954957;28;20023;-77
2022/07/27 05:30:48;;;;;;;4.45;1.30;;;18.30;99.90;;;;;;4947400;28;20549;-77
2022/07/27 05:33:14;;;;;;;3.55;1.17;;;18.30;99.90;;;;;;4962540;28;20412;-77
2022/07/27 05:35:39;;;;;;;7.72;1.25;;;18.30;99.90;;;;;;4955243;28;20027;-77
2022/07/27 05:38:05;;;;;;;5.32;1.20;;;18.30;99.90;;;;;;4954712;28;20027;-77
2022/07/27 05:40:31;;;;;;;5.47;1.35;;;18.30;99.90;;;;;;4954771;28;20027;-77
2022/07/27 11:40:27;;;;;;;4.85;1.10;;;30.10;38.00;;;;;;6066302;23;20018;31
2022/07/27 11:42:53;;;;;;;2.85;1.02;;;29.70;38.50;;;;;;4941640;29;20049;-78
2022/07/27 11:45:28;;;;;;;4.53;0.98;;;29.60;38.00;;;;;;4939971;29;20434;-76
2022/07/27 11:47:57;;;;;;;5.38;1.30;;;29.30;37.30;;;;;;4957372;29;20116;-76
2022/07/27 11:50:23;;;;;;;3.05;1.00;;;29.80;36.20;;;;;;4956882;29;20043;-77
2022/07/27 11:52:56;;;;;;;3.72;0.93;;;29.50;36.30;;;;;;4922433;29;20036;-77
2022/07/27 11:55:22;;;;;;;4.85;0.90;;;29.60;36.50;;;;;;4936227;29;20030;-77
2022/07/27 11:57:48;;;;;;;4.40;1.00;;;29.50;35.90;;;;;;4940764;29;20114;-77
2022/07/27 12:00:13;;;;;;;2.78;1.20;;;29.40;35.80;;;;;;4933856;29;20038;-77
2022/07/27 12:02:49;;;;;;;3.53;1.17;;;29.70;35.40;;;;;;4940725;29;20081;-77
2022/07/27 12:05:15;;;;;;;6.88;1.40;;;29.70;35.30;;;;;;4935937;29;20504;-76
2022/07/27 12:07:43;;;;;;;6.43;1.10;;;29.90;34.50;;;;;;4939613;29;20027;-77
2022/07/27 12:10:09;;;;;;;3.13;1.00;;;30.20;35.10;;;;;;4917912;29;20039;-77
2022/07/27 12:12:36;;;;;;;2.53;0.90;;;30.00;34.80;;;;;;4938979;29;20435;-77
2022/07/27 12:15:17;;;;;;;4.40;1.25;;;30.30;33.60;;;;;;4935018;29;20036;-76
2022/07/27 12:17:43;;;;;;;3.78;1.20;;;29.60;32.90;;;;;;4930057;29;20087;-77
2022/07/27 12:20:11;;;;;;;7.00;1.25;;;30.00;32.60;;;;;;4937099;29;20107;-76
2022/07/27 12:22:49;;;;;;;2.25;0.88;;;29.90;33.20;;;;;;4939129;29;20031;-77
2022/07/27 12:25:17;;;;;;;7.15;1.20;;;30.30;33.80;;;;;;4944335;29;20443;-76
2022/07/27 12:28:11;;;;;;;2.65;1.13;;;30.40;34.50;;;;;;4933286;29;20072;-76
2022/07/27 12:30:46;;;;;;;3.17;1.10;;;30.10;34.20;;;;;;4938729;29;20647;-76
2022/07/27 12:33:28;;;;;;;6.38;1.50;;;30.20;33.70;;;;;;4948636;29;20448;-77
2022/07/27 12:35:55;;;;;;;5.88;1.42;;;30.10;33.90;;;;;;4943850;29;20023;-76
2022/07/27 12:38:21;;;;;;;4.50;1.10;;;30.10;33.60;;;;;;4940110;29;20403;-77
2022/07/27 12:40:48;;;;;;;5.07;0.98;;;29.80;34.00;;;;;;4944733;29;20023;-76
2022/07/27 12:43:17;;;;;;;4.80;1.00;;;29.70;33.90;;;;;;4941336;29;20111;-77
2022/07/27 12:45:42;;;;;;;4.65;1.20;;;29.80;34.60;;;;;;4940011;28;20034;-76
2022/07/27 12:48:15;;;;;;;3.25;0.88;;;29.80;35.00;;;;;;4946791;29;20032;-76
2022/07/27 12:50:42;;;;;;;3.20;1.00;;;30.10;35.70;;;;;;4954312;28;20023;-77
2022/07/27 12:53:09;;;;;;;4.00;1.15;;;30.00;35.50;;;;;;4950359;28;20085;-76
2022/07/27 12:55:36;;;;;;;4.32;1.20;;;30.30;34.50;;;;;;4943410;28;20024;-77
2022/07/27 12:58:01;;;;;;;3.45;0.90;;;30.00;35.30;;;;;;4948807;28;20023;-76
2022/07/27 13:00:29;;;;;;;5.90;1.48;;;30.10;35.10;;;;;;4950309;28;20031;-76
2022/07/27 13:02:56;;;;;;;2.50;1.00;;;30.20;33.70;;;;;;4933850;29;20035;-76
2022/07/27 13:05:22;;;;;;;3.08;1.00;;;30.20;34.30;;;;;;4930746;29;20036;-77
2022/07/27 13:07:48;;;;;;;6.32;0.93;;;30.40;34.90;;;;;;4933778;29;20028;-77
2022/07/27 13:10:17;;;;;;;9.48;1.00;;;30.10;33.50;;;;;;4933406;29;20059;-76
2022/07/27 13:12:43;;;;;;;7.95;1.05;;;29.90;34.50;;;;;;4941032;29;20173;-77
2022/07/27 13:15:09;;;;;;;6.47;1.05;;;30.10;34.10;;;;;;4936954;29;20038;-77
2022/07/27 13:17:35;;;;;;;3.90;1.10;;;30.00;33.20;;;;;;4934842;29;20063;-78
2022/07/27 13:20:02;;;;;;;4.68;1.00;;;30.00;33.70;;;;;;4933094;29;20110;-77
2022/07/27 13:22:28;;;;;;;3.83;1.33;;;29.90;33.90;;;;;;4936686;29;20387;-77
2022/07/27 13:24:54;;;;;;;3.60;1.50;;;29.80;34.50;;;;;;4939894;29;20023;-77
2022/07/27 13:27:19;;;;;;;4.95;1.30;;;29.70;34.10;;;;;;4949736;28;20059;-77
2022/07/27 13:29:45;;;;;;;5.20;1.10;;;29.80;33.90;;;;;;4934164;28;20033;-77
2022/07/27 13:32:11;;;;;;;8.85;1.27;;;30.10;34.00;;;;;;4928142;29;20043;-77
2022/07/27 13:34:37;;;;;;;4.85;1.00;;;30.10;34.10;;;;;;4945251;28;20032;-77
2022/07/27 13:37:02;;;;;;;3.47;1.35;;;30.20;34.60;;;;;;4941421;28;20039;-77
2022/07/27 13:39:28;;;;;;;2.92;1.08;;;29.90;34.20;;;;;;4932524;29;20027;-78
2022/07/27 13:41:56;;;;;;;4.25;1.33;;;30.00;34.20;;;;;;4951476;28;20055;-77
2022/07/27 13:44:22;;;;;;;7.70;1.17;;;29.90;33.90;;;;;;4936109;29;20514;-78
2022/07/27 13:46:48;;;;;;;4.10;1.00;;;29.60;34.20;;;;;;4932610;29;20023;-77
2022/07/27 13:49:18;;;;;;;4.43;1.27;;;29.50;33.80;;;;;;4940102;29;20036;-76
2022/07/27 13:51:45;;;;;;;2.45;1.13;;;29.50;33.70;;;;;;4939055;29;20059;-77
2022/07/27 13:54:11;;;;;;;5.78;1.10;;;29.60;34.20;;;;;;4942025;28;20376;-76
2022/07/27 13:56:37;;;;;;;3.92;1.05;;;29.80;34.00;;;;;;4946604;28;20141;-77
2022/07/27 13:59:04;;;;;;;6.05;1.25;;;29.60;33.60;;;;;;4936212;28;20039;-77
2022/07/27 14:01:34;;;;;;;3.13;1.10;;;29.90;33.50;;;;;;4933377;29;20082;-77
2022/07/27 14:04:04;;;;;;;3.80;0.95;;;29.80;33.90;;;;;;4937328;29;20025;-77
2022/07/27 14:06:31;;;;;;;3.88;1.40;;;29.70;34.30;;;;;;4945749;28;20051;-78
2022/07/27 14:08:57;;;;;;;2.97;1.02;;;29.80;34.50;;;;;;4932993;29;20050;-76
2022/07/27 14:11:23;;;;;;;5.22;1.42;;;29.60;33.30;;;;;;4934723;29;20031;-76
2022/07/27 14:13:48;;;;;;;8.55;1.55;;;29.60;32.80;;;;;;4934166;29;20055;-82
2022/07/27 14:45:22;;;;;;;7.00;1.10;;;29.50;33.60;;;;;;5763357;23;20085;-79
2022/07/27 14:47:48;;;;;;;4.45;1.25;;;29.50;32.20;;;;;;4970343;28;20015;-78
2022/07/27 14:50:14;;;;;;;18.90;1.65;;;29.60;32.50;;;;;;4972460;28;20026;-78
2022/07/27 14:52:40;;;;;;;4.25;1.10;;;29.60;32.30;;;;;;4979321;28;20093;-78
2022/07/27 14:55:06;;;;;;;7.20;1.42;;;29.70;33.90;;;;;;4992406;28;20041;-77
2022/07/27 14:57:32;;;;;;;8.32;1.20;;;29.70;33.50;;;;;;4992447;28;20027;-78
2022/07/27 14:59:58;;;;;;;8.73;1.83;;;29.50;33.10;;;;;;4975459;28;20031;-78
2022/07/27 15:02:23;;;;;;;4.15;0.80;;;29.40;33.10;;;;;;4961642;28;20014;-78
2022/07/27 15:04:49;;;;;;;5.63;1.35;;;29.40;33.90;;;;;;4953968;29;20470;-80
2022/07/27 15:07:15;;;;;;;4.30;0.95;;;29.40;33.70;;;;;;4952314;28;20047;-80
2022/07/27 15:09:41;;;;;;;7.00;1.17;;;29.50;33.80;;;;;;4971455;28;20034;-78
2022/07/27 15:12:08;;;;;;;4.63;1.13;;;29.30;33.40;;;;;;4980673;28;20089;-80
2022/07/27 15:14:37;;;;;;;10.00;1.17;;;29.40;33.40;;;;;;4973523;28;20073;-78
2022/07/27 15:17:03;;;;;;;10.40;1.20;;;29.30;34.00;;;;;;4978875;28;20037;-76
2022/07/27 15:19:29;;;;;;;9.45;1.23;;;28.90;34.30;;;;;;4975900;28;20030;-76
2022/07/27 15:21:54;;;;;;;3.95;0.98;;;29.10;34.60;;;;;;4980500;28;20026;-78
2022/07/27 15:24:21;;;;;;;4.20;1.23;;;29.50;34.60;;;;;;4982558;28;20478;-77
2022/07/27 15:26:46;;;;;;;1.17;0.80;;;29.30;33.80;;;;;;4982004;28;20047;-77
2022/07/27 15:29:12;;;;;;;5.95;1.30;;;29.40;34.10;;;;;;4979984;28;20059;-78
2022/07/27 15:31:38;;;;;;;7.30;1.70;;;29.40;34.20;;;;;;4976144;28;20030;-78
2022/07/27 15:34:04;;;;;;;5.15;1.60;;;29.20;34.80;;;;;;4975257;28;20042;-78
2022/07/27 15:36:30;;;;;;;3.47;0.80;;;29.10;34.40;;;;;;4976903;28;20027;-78
2022/07/27 15:38:55;;;;;;;3.55;1.20;;;29.20;34.90;;;;;;4976899;28;20094;-79
2022/07/27 15:41:21;;;;;;;5.70;1.00;;;29.20;34.50;;;;;;4972121;28;20035;-78
2022/07/27 15:43:47;;;;;;;4.05;0.90;;;29.40;34.00;;;;;;4987338;28;20466;-77
2022/07/27 15:46:13;;;;;;;3.83;0.90;;;29.50;33.10;;;;;;4971941;28;20097;-78
2022/07/27 15:48:39;;;;;;;7.30;1.02;;;29.40;33.20;;;;;;4956691;28;20015;-78
2022/07/27 15:51:05;;;;;;;7.13;1.15;;;29.30;33.00;;;;;;4956775;29;20089;-76
2022/07/27 15:53:30;;;;;;;3.88;1.02;;;29.30;33.80;;;;;;4961027;28;20511;-76
2022/07/27 15:55:57;;;;;;;4.05;1.10;;;29.20;34.20;;;;;;4958971;28;20499;-74
2022/07/27 15:58:23;;;;;;;3.28;0.88;;;29.10;34.80;;;;;;4947564;28;20102;-73
2022/07/27 16:00:52;;;;;;;4.63;1.00;;;28.90;35.40;;;;;;4956555;28;20027;-74
2022/07/27 16:03:19;;;;;;;4.28;1.25;;;29.00;35.20;;;;;;4973737;28;20026;-74
2022/07/27 16:05:49;;;;;;;7.97;1.00;;;29.00;35.30;;;;;;4953461;28;20015;-75
2022/07/27 16:08:17;;;;;;;4.45;0.90;;;29.20;35.30;;;;;;4952861;28;20353;-75
2022/07/27 16:10:44;;;;;;;3.95;0.90;;;29.00;34.40;;;;;;4956591;28;20030;-75
2022/07/27 16:13:14;;;;;;;18.40;1.10;;;29.10;34.70;;;;;;4971952;28;20482;-77
2022/07/27 16:18:27;;;;;;;4.63;1.20;;;29.20;35.70;;;;;;4961320;28;20029;-79
2022/07/27 16:20:53;;;;;;;6.30;1.00;;;28.90;35.20;;;;;;4958214;28;20523;-77
2022/07/27 16:23:20;;;;;;;4.03;0.88;;;29.10;35.50;;;;;;4963424;28;20031;-76
2022/07/27 16:25:47;;;;;;;5.38;1.05;;;29.10;34.20;;;;;;4955692;28;20031;-76
2022/07/27 16:28:13;;;;;;;4.53;1.20;;;29.10;36.30;;;;;;4962511;28;20026;-75
2022/07/27 16:30:39;;;;;;;6.50;1.00;;;29.20;35.40;;;;;;4962776;28;20099;-76
2022/07/27 16:33:05;;;;;;;3.70;0.90;;;29.10;34.40;;;;;;4956139;29;20479;-75
2022/07/27 16:35:31;;;;;;;7.00;1.05;;;29.10;34.00;;;;;;4955370;29;20102;-75
2022/07/27 16:37:56;;;;;;;6.72;1.02;;;28.90;34.40;;;;;;4951169;28;20035;-75
2022/07/27 16:40:22;;;;;;;2.63;1.27;;;28.90;34.20;;;;;;4941595;29;20498;-75
2022/07/27 16:42:47;;;;;;;2.47;0.90;;;28.90;34.80;;;;;;4952451;29;20391;-75
2022/07/27 16:45:13;;;;;;;5.03;0.90;;;28.80;34.50;;;;;;4947589;28;20493;-75
2022/07/27 16:47:39;;;;;;;3.60;1.02;;;28.70;34.30;;;;;;4957977;28;20030;-76
2022/07/27 16:50:07;;;;;;;5.47;1.30;;;28.70;34.80;;;;;;4966281;28;20031;-75
2022/07/27 16:52:33;;;;;;;2.25;1.02;;;28.70;35.10;;;;;;4955144;28;20033;-79
2022/07/27 16:54:58;;;;;;;2.83;1.10;;;28.80;35.80;;;;;;4945489;28;20035;-78
2022/07/27 16:57:24;;;;;;;1.98;0.70;;;28.80;36.00;;;;;;4955105;28;20039;-75
2022/07/27 16:59:50;;;;;;;5.90;1.27;;;28.60;35.70;;;;;;4955108;28;20035;-76
2022/07/27 17:02:16;;;;;;;4.90;0.88;;;28.50;36.00;;;;;;4965674;28;20081;-75
2022/07/27 17:04:41;;;;;;;2.65;0.80;;;28.40;36.00;;;;;;4961418;28;20386;-79
2022/07/27 17:07:07;;;;;;;4.80;1.30;;;28.40;36.10;;;;;;4959860;28;20406;-83
2022/07/27 17:09:33;;;;;;;4.32;1.20;;;28.50;36.10;;;;;;4942777;28;20442;-75
2022/07/27 17:11:58;;;;;;;3.60;1.30;;;28.30;35.30;;;;;;4951476;29;20043;-83
2022/07/27 17:14:24;;;;;;;7.40;3.17;;;28.30;35.30;;;;;;4952897;28;20030;-83
2022/07/27 17:16:50;;;;;;;6.80;1.40;;;28.40;34.90;;;;;;4948837;28;20502;-80
2022/07/27 17:19:16;;;;;;;6.50;1.42;;;28.30;35.00;;;;;;4952743;28;20019;-82
2022/07/27 17:21:42;;;;;;;7.43;1.48;;;28.40;35.50;;;;;;4952775;28;20027;-79
2022/07/27 17:24:08;;;;;;;1.83;0.70;;;28.40;34.90;;;;;;4954882;28;20027;-80
2022/07/27 17:26:34;;;;;;;7.93;1.40;;;28.30;35.30;;;;;;4954423;28;20506;-81
2022/07/27 17:29:00;;;;;;;6.38;0.93;;;28.10;35.30;;;;;;4958281;28;20065;-83
2022/07/27 17:31:25;;;;;;;5.18;0.82;;;28.10;35.90;;;;;;4966515;28;20067;-86
2022/07/27 17:33:52;;;;;;;5.88;1.40;;;28.10;35.90;;;;;;4951523;28;20038;-83
2022/07/27 17:36:19;;;;;;;4.60;1.13;;;28.20;35.80;;;;;;4956857;28;20058;-82
2022/07/27 17:38:46;;;;;;;5.35;1.00;;;28.20;35.10;;;;;;4953264;28;20390;-83
2022/07/27 17:41:13;;;;;;;5.80;0.90;;;28.20;35.50;;;;;;4953370;28;20034;-82
2022/07/27 17:43:39;;;;;;;2.90;1.10;;;28.10;36.00;;;;;;4956002;28;20050;-83
2022/07/27 17:46:06;;;;;;;2.45;1.02;;;28.10;36.20;;;;;;4956948;28;20541;-81
2022/07/27 17:48:32;;;;;;;4.30;1.33;;;28.00;36.80;;;;;;4953060;28;20015;-80
2022/07/27 17:50:58;;;;;;;3.13;1.10;;;27.90;37.50;;;;;;4946902;28;20023;-80
2022/07/27 17:53:24;;;;;;;5.97;1.00;;;28.00;38.20;;;;;;4955760;28;20038;-78
2022/07/27 17:55:52;;;;;;;2.88;1.20;;;27.90;38.30;;;;;;4954069;28;20094;-80
2022/07/27 17:58:18;;;;;;;5.43;1.15;;;27.80;38.30;;;;;;4956936;28;20023;-80
2022/07/27 18:00:44;;;;;;;2.15;0.90;;;27.90;38.10;;;;;;4957431;28;20034;-77
2022/07/27 18:03:11;;;;;;;3.47;1.08;;;27.80;38.10;;;;;;4953396;28;20027;-78
2022/07/27 18:05:38;;;;;;;7.95;1.05;;;27.60;38.10;;;;;;4954397;28;20030;-78
2022/07/27 18:08:05;;;;;;;3.75;1.00;;;27.60;38.40;;;;;;4951560;28;20444;-78
2022/07/27 18:10:31;;;;;;;2.03;0.90;;;27.60;38.50;;;;;;4955917;28;20023;-78
2022/07/27 18:12:57;;;;;;;3.50;1.05;;;27.40;38.50;;;;;;4958995;28;20049;-77
2022/07/27 18:18:21;;;;;;;4.90;1.20;;;27.40;38.90;;;;;;4944410;28;20057;-77
2022/07/27 18:20:50;;;;;;;4.55;1.17;;;27.30;39.60;;;;;;4952972;28;20554;-77
2022/07/27 18:23:17;;;;;;;5.13;1.10;;;27.40;39.50;;;;;;4963877;28;20019;-77
2022/07/27 18:25:43;;;;;;;5.65;1.08;;;27.20;39.10;;;;;;4952514;28;20024;-77
2022/07/27 18:28:09;;;;;;;4.10;1.10;;;27.20;39.40;;;;;;4948065;28;20020;-77
2022/07/27 18:30:35;;;;;;;5.32;1.00;;;27.10;40.30;;;;;;4953632;28;20083;-77
2022/07/27 18:33:01;;;;;;;2.85;0.90;;;27.00;40.40;;;;;;4951324;28;20035;-77
2022/07/27 18:35:26;;;;;;;4.32;1.00;;;27.00;40.70;;;;;;4961891;28;20027;-77
2022/07/27 18:37:52;;;;;;;3.22;1.00;;;27.00;40.90;;;;;;4952415;28;20101;-77
2022/07/27 18:40:18;;;;;;;3.40;0.90;;;26.90;41.40;;;;;;4954277;28;20094;-81
2022/07/27 18:42:45;;;;;;;6.03;1.27;;;26.80;41.20;;;;;;4958941;28;20478;-77
2022/07/27 18:45:11;;;;;;;2.65;0.80;;;26.80;41.50;;;;;;4950149;28;20099;-78
2022/07/27 18:47:36;;;;;;;2.25;1.17;;;26.70;42.30;;;;;;4956799;28;20027;-77
2022/07/27 18:50:03;;;;;;;3.85;1.00;;;26.60;42.30;;;;;;4968176;28;20023;-77
2022/07/27 18:52:29;;;;;;;8.50;1.60;;;26.60;42.60;;;;;;4966372;28;20030;-77
2022/07/27 18:54:55;;;;;;;5.15;1.20;;;26.50;42.60;;;;;;4974589;28;20410;-77
2022/07/27 18:57:20;;;;;;;3.38;1.27;;;26.40;43.00;;;;;;4976513;28;20509;-76
2022/07/27 18:59:49;;;;;;;6.05;1.00;;;26.40;43.40;;;;;;4960515;28;20035;-77
2022/07/27 19:02:19;;;;;;;5.15;1.00;;;26.30;43.40;;;;;;4975711;28;20046;-78
2022/07/27 19:04:45;;;;;;;4.00;1.40;;;26.20;43.40;;;;;;4960940;28;20050;-77
2022/07/27 19:07:10;;;;;;;3.85;1.30;;;26.30;44.20;;;;;;4951521;28;20086;-78
2022/07/27 19:09:36;;;;;;;9.50;1.23;;;26.20;44.20;;;;;;4962630;28;20022;-77
2022/07/27 19:12:02;;;;;;;6.60;1.10;;;26.10;44.70;;;;;;4970793;28;20121;-78
2022/07/27 19:14:28;;;;;;;6.35;1.17;;;26.00;44.70;;;;;;4976061;28;20066;-78
2022/07/27 19:16:53;;;;;;;6.55;1.40;;;26.00;45.10;;;;;;4974331;28;20030;-78
2022/07/27 19:19:20;;;;;;;4.80;1.10;;;25.90;44.90;;;;;;4947915;28;20132;-77